Time;durP1;ratioP1;P1;durP2;ratioP2;P2;SDS_P1;SDS_P2;PMS_P1;PMS_P2;Temp;Humidity;BMP_temperature;BMP_pressure;BME280_temperature;BME280_humidity;BME280_pressure;Samples;Min_cycle;Max_cycle;Signal;HPM_P1;HPM_P2
2023/05/23 00:02:27;;;;;;;;;;;21.00;92.00;;;21.06;58.09;98470.44;5086458;27;115365;-80
2023/05/23 00:04:57;;;;;;;;;;;20.90;92.10;;;21.01;58.14;98465.22;5089336;27;116062;-81
2023/05/23 00:07:31;;;;;;;;;;;20.90;92.40;;;20.98;58.54;98471.59;5060082;27;123884;-81
2023/05/23 00:09:57;;;;;;;;;;;20.80;92.60;;;20.92;58.89;98468.34;5058101;27;124078;-81
2023/05/23 00:12:32;;;;;;;;;;;20.70;93.00;;;20.91;58.87;98465.94;5068556;27;114485;-82
2023/05/23 00:14:59;;;;;;;;;;;20.70;93.30;;;20.88;59.09;98472.34;5088797;27;113870;-82
2023/05/23 00:17:29;;;;;;;;;;;20.60;93.30;;;20.85;59.62;98479.53;5089642;27;124336;-81
2023/05/23 00:19:56;;;;;;;;;;;20.60;93.60;;;20.82;59.55;98473.88;5070666;27;124216;-82
2023/05/23 00:22:22;;;;;;;;;;;20.60;93.80;;;20.79;59.84;98463.44;5089273;27;114140;-83
2023/05/23 00:24:56;;;;;;;;;;;20.60;94.00;;;20.78;59.81;98461.81;5078116;27;113763;-82
2023/05/23 00:27:23;;;;;;;;;;;20.50;94.10;;;20.76;59.95;98467.03;5070000;27;124248;-82
2023/05/23 00:29:51;;;;;;;;;;;20.20;94.30;;;20.71;60.21;98457.78;5087662;27;123807;-82
2023/05/23 00:32:18;;;;;;;;;;;20.50;94.60;;;20.70;60.53;98473.00;5087872;27;114270;-82
2023/05/23 00:34:44;;;;;;;;;;;20.50;94.60;;;20.71;60.20;98480.25;5087387;27;113803;-82
2023/05/23 00:37:17;;;;;;;;;;;20.50;94.60;;;20.74;60.25;98482.25;5056301;27;123573;-82
2023/05/23 00:39:47;;;;;;;;;;;20.50;94.60;;;20.74;60.39;98479.47;5087080;27;123525;-82
2023/05/23 00:42:16;;;;;;;;;;;20.50;94.70;;;20.75;60.31;98480.25;5074458;27;114477;-82
2023/05/23 00:44:42;;;;;;;;;;;20.50;94.90;;;20.72;60.36;98481.84;5089295;27;113655;-82
2023/05/23 00:47:10;;;;;;;;;;;20.50;95.00;;;20.71;60.42;98485.84;5088436;27;125014;-82
2023/05/23 00:49:40;;;;;;;;;;;20.40;95.10;;;20.71;60.31;98482.22;5070317;27;124809;-82
2023/05/23 00:52:09;;;;;;;;;;;20.40;95.00;;;20.71;60.59;98491.47;5070983;27;115351;-82
2023/05/23 00:54:36;;;;;;;;;;;20.40;95.10;;;20.69;60.75;98487.44;5066696;27;114892;-82
2023/05/23 00:57:08;;;;;;;;;;;20.50;95.30;;;20.69;61.03;98493.84;5073188;27;124811;-83
2023/05/23 00:59:36;;;;;;;;;;;20.40;95.40;;;20.67;60.69;98496.22;5068646;27;123935;-81
2023/05/23 01:02:05;;;;;;;;;;;20.40;95.50;;;20.66;60.88;98493.78;5054000;27;113401;-82
2023/05/23 01:04:32;;;;;;;;;;;20.40;95.60;;;20.62;61.40;98493.78;5081180;27;114597;-82
2023/05/23 01:06:59;;;;;;;;;;;20.30;95.70;;;20.58;61.19;98504.19;5081638;27;124978;-82
2023/05/23 01:09:29;;;;;;;;;;;20.30;95.80;;;20.54;61.79;98503.31;5088442;27;124613;-82
2023/05/23 01:12:16;;;;;;;;;;;20.30;96.00;;;20.49;61.69;98500.84;5056563;27;114755;-82
2023/05/23 01:15:08;;;;;;;;;;;20.20;96.00;;;20.41;61.93;98494.34;5067098;27;113984;-82
2023/05/23 01:17:57;;;;;;;;;;;20.20;96.20;;;20.37;62.00;98498.31;5087302;27;124067;-82
2023/05/23 01:20:32;;;;;;;;;;;20.20;96.40;;;20.32;62.18;98493.06;5049091;27;123617;-83
2023/05/23 01:23:04;;;;;;;;;;;20.10;96.50;;;20.30;62.60;98501.84;5059756;27;114386;-82
2023/05/23 01:26:10;;;;;;;;;;;20.10;96.80;;;20.25;62.99;98497.38;5088732;27;113800;-83
2023/05/23 01:28:45;;;;;;;;;;;20.10;96.80;;;20.23;62.82;98499.78;5079244;27;124862;-82
2023/05/23 01:31:18;;;;;;;;;;;20.00;97.10;;;20.22;62.86;98492.53;5089272;27;124391;-83
2023/05/23 01:33:45;;;;;;;;;;;20.00;96.80;;;20.23;62.94;98501.78;5074153;27;114265;-82
2023/05/23 01:36:20;;;;;;;;;;;20.00;96.90;;;20.23;62.87;98501.78;5074575;27;113881;-83
2023/05/23 01:38:46;;;;;;;;;;;20.00;96.90;;;20.22;62.66;98498.16;5071968;27;124278;-82
2023/05/23 01:41:24;;;;;;;;;;;20.00;97.00;;;20.20;63.00;98500.56;5080059;27;123619;-83
2023/05/23 01:43:54;;;;;;;;;;;20.00;96.90;;;20.23;62.80;98504.56;5078629;27;115384;-83
2023/05/23 01:46:21;;;;;;;;;;;20.00;97.00;;;20.21;62.92;98507.78;5062883;27;113775;-82
2023/05/23 01:48:48;;;;;;;;;;;20.00;97.20;;;20.18;63.09;98505.75;5069773;27;123925;-82
2023/05/23 01:51:16;;;;;;;;;;;19.90;97.10;;;20.15;63.27;98514.94;5068814;27;124341;-82
2023/05/23 01:53:43;;;;;;;;;;;19.90;97.20;;;20.16;63.36;98499.72;5061403;27;114287;-83
2023/05/23 01:56:09;;;;;;;;;;;19.90;97.30;;;20.14;63.03;98507.69;5069054;27;112918;-83
2023/05/23 01:58:40;;;;;;;;;;;19.90;97.20;;;20.14;63.44;98506.88;5061038;27;123953;-83
2023/05/23 02:01:09;;;;;;;;;;;19.90;97.30;;;20.15;63.36;98516.91;5073773;27;123458;-83
2023/05/23 02:03:35;;;;;;;;;;;19.90;97.40;;;20.13;62.78;98511.69;5069827;27;114602;-83
2023/05/23 02:06:08;;;;;;;;;;;19.90;97.30;;;20.13;63.07;98505.28;5059933;27;112789;-83
2023/05/23 02:08:42;;;;;;;;;;;19.90;97.40;;;20.10;63.00;98506.84;5066026;27;124261;-82
2023/05/23 02:11:09;;;;;;;;;;;19.90;97.50;;;20.05;63.44;98510.81;5074102;27;124142;-83
2023/05/23 02:13:35;;;;;;;;;;;19.80;97.60;;;20.02;63.48;98499.56;5060585;27;113755;-82
2023/05/23 02:16:08;;;;;;;;;;;19.80;97.70;;;19.97;63.85;98508.31;5082848;27;113673;-83
2023/05/23 02:18:36;;;;;;;;;;;19.70;97.80;;;19.92;63.92;98501.03;5065065;27;124139;-82
2023/05/23 02:21:05;;;;;;;;;;;19.70;97.80;;;19.90;63.68;98502.59;5072597;27;123115;-84
2023/05/23 02:23:32;;;;;;;;;;;19.60;97.80;;;19.85;63.95;98512.97;5079051;27;114053;-83
2023/05/23 02:25:58;;;;;;;;;;;19.60;97.80;;;19.82;64.13;98505.31;5058617;27;113572;-83
2023/05/23 02:28:24;;;;;;;;;;;19.60;97.90;;;19.80;64.29;98504.06;5062865;27;124664;-83
2023/05/23 02:30:53;;;;;;;;;;;19.60;98.00;;;19.79;64.36;98511.69;5064594;27;124298;-83
2023/05/23 02:33:19;;;;;;;;;;;19.60;98.10;;;19.79;64.10;98514.50;5087711;27;115421;-83
2023/05/23 02:35:46;;;;;;;;;;;19.60;98.10;;;19.78;64.40;98512.88;5071529;27;114651;-82
2023/05/23 02:38:12;;;;;;;;;;;19.50;98.20;;;19.77;64.53;98516.88;5062224;27;124484;-82
2023/05/23 02:40:40;;;;;;;;;;;19.50;98.20;;;19.76;64.41;98509.66;5065225;27;123884;-82
2023/05/23 02:43:06;;;;;;;;;;;19.50;98.30;;;19.74;64.55;98525.22;5059216;27;114533;-83
2023/05/23 02:45:32;;;;;;;;;;;19.50;98.30;;;19.74;64.69;98520.44;5090231;27;113316;-81
2023/05/23 02:48:04;;;;;;;;;;;19.50;98.30;;;19.73;64.64;98516.03;5086099;27;124712;-82
2023/05/23 02:50:30;;;;;;;;;;;19.50;98.40;;;19.69;64.79;98519.97;5058270;27;123279;-83
2023/05/23 02:52:56;;;;;;;;;;;19.40;98.50;;;19.66;64.78;98521.53;5058157;27;113630;-83
2023/05/23 02:55:28;;;;;;;;;;;19.40;98.50;;;19.64;64.86;98518.28;5060731;27;113508;-83
2023/05/23 02:57:55;;;;;;;;;;;19.40;98.80;;;19.64;64.87;98535.91;5085292;27;124275;-83
2023/05/23 03:00:23;;;;;;;;;;;19.40;98.70;;;19.62;64.90;98520.66;5075220;27;123993;-83
2023/05/23 03:02:52;;;;;;;;;;;19.40;98.70;;;19.61;64.77;98527.44;5062729;27;114165;-82
2023/05/23 03:05:19;;;;;;;;;;;18.60;98.30;;;19.60;64.78;98535.03;5057710;27;113142;-83
2023/05/23 03:07:45;;;;;;;;;;;19.30;98.70;;;19.60;65.17;98528.63;5074961;27;124114;-83
2023/05/23 03:10:11;;;;;;;;;;;19.30;98.80;;;19.60;65.04;98539.84;5064490;27;122836;-82
2023/05/23 03:12:41;;;;;;;;;;;19.30;98.90;;;19.59;64.99;98541.03;5071021;27;113577;-82
2023/05/23 03:15:09;;;;;;;;;;;19.30;98.90;;;19.58;65.03;98536.59;5064678;27;114047;-83
2023/05/23 03:17:35;;;;;;;;;;;19.30;98.90;;;19.58;65.41;98545.00;5051173;27;124677;-83
2023/05/23 03:20:08;;;;;;;;;;;19.30;99.10;;;19.59;64.96;98543.84;5087508;27;123562;-83
2023/05/23 03:22:35;;;;;;;;;;;19.30;99.00;;;19.62;64.82;98540.28;5057339;27;115382;-84
2023/05/23 03:25:08;;;;;;;;;;;19.30;98.90;;;19.64;64.69;98544.31;5093041;27;114886;-83
2023/05/23 03:27:36;;;;;;;;;;;19.30;98.80;;;19.65;64.92;98551.53;5089727;27;124426;-83
2023/05/23 03:30:05;;;;;;;;;;;19.30;98.80;;;19.66;64.74;98543.94;5065932;27;123858;-83
2023/05/23 03:32:32;;;;;;;;;;;19.30;98.90;;;19.66;64.62;98557.97;5037303;27;113567;-83
2023/05/23 03:34:58;;;;;;;;;;;19.40;98.90;;;19.69;64.75;98564.81;5070062;27;113123;-82
2023/05/23 03:37:24;;;;;;;;;;;19.40;98.90;;;19.68;64.81;98555.59;5060760;27;123301;-83
2023/05/23 03:39:53;;;;;;;;;;;19.40;98.80;;;19.68;64.44;98552.78;5082967;27;123897;-82
2023/05/23 03:42:19;;;;;;;;;;;19.40;98.80;;;19.69;64.43;98551.59;5060265;27;114312;-83
2023/05/23 03:44:45;;;;;;;;;;;19.40;98.80;;;19.71;64.66;98552.03;5071188;27;113832;-83
2023/05/23 03:47:12;;;;;;;;;;;19.40;98.90;;;19.70;64.47;98553.22;5080556;27;123855;-84
2023/05/23 03:49:41;;;;;;;;;;;19.40;98.90;;;19.69;64.51;98550.78;5086365;27;124412;-83
2023/05/23 03:52:07;;;;;;;;;;;19.40;98.90;;;19.64;64.61;98547.13;5071873;27;114516;-83
2023/05/23 03:54:33;;;;;;;;;;;19.30;98.90;;;19.64;64.70;98547.13;5061105;27;114061;-84
2023/05/23 03:57:00;;;;;;;;;;;19.30;98.80;;;19.64;64.42;98547.13;5081075;27;124181;-83
2023/05/23 03:59:29;;;;;;;;;;;19.30;98.90;;;19.67;64.43;98544.78;5071292;27;123907;-82
2023/05/23 04:01:57;;;;;;;;;;;19.30;98.90;;;19.69;64.41;98545.19;5041728;27;113761;-83
2023/05/23 04:04:24;;;;;;;;;;;19.30;98.90;;;19.68;64.42;98541.56;5085819;27;114682;-83
2023/05/23 04:07:00;;;;;;;;;;;19.30;98.90;;;19.66;64.54;98549.56;5072070;27;123234;-83
2023/05/23 04:09:29;;;;;;;;;;;19.30;98.90;;;19.65;64.77;98548.72;5067006;27;124335;-83
2023/05/23 04:11:57;;;;;;;;;;;19.30;99.00;;;19.62;64.99;98554.28;5055369;27;115277;-83
2023/05/23 04:14:23;;;;;;;;;;;19.30;99.00;;;19.58;64.68;98548.59;5062466;27;115285;-83
2023/05/23 04:16:55;;;;;;;;;;;19.30;99.00;;;19.56;65.06;98555.81;5074972;27;124293;-83
2023/05/23 04:19:22;;;;;;;;;;;19.30;99.00;;;19.54;65.08;98563.78;5041247;27;123361;-83
2023/05/23 04:21:48;;;;;;;;;;;19.30;99.10;;;19.54;64.74;98558.19;5074950;27;114437;-84
2023/05/23 04:24:17;;;;;;;;;;;19.30;99.10;;;19.54;65.12;98564.59;5062693;27;114401;-83
2023/05/23 04:26:43;;;;;;;;;;;19.20;99.10;;;19.52;65.13;98564.13;5080619;27;125057;-84
2023/05/23 04:29:11;;;;;;;;;;;19.20;99.10;;;19.52;65.00;98568.94;5058036;27;123885;-83
2023/05/23 04:31:37;;;;;;;;;;;19.20;99.10;;;19.51;65.04;98561.72;5088208;27;115004;-83
2023/05/23 04:34:08;;;;;;;;;;;19.20;99.20;;;19.51;64.96;98562.53;5068748;27;112850;-83
2023/05/23 04:36:36;;;;;;;;;;;19.20;99.20;;;19.52;65.15;98571.75;5071356;27;123473;-83
2023/05/23 04:39:08;;;;;;;;;;;19.20;99.20;;;19.53;65.37;98567.75;5083908;27;123878;-83
2023/05/23 04:41:35;;;;;;;;;;;19.20;99.30;;;19.55;65.06;98579.41;5060423;27;114230;-83
2023/05/23 04:44:08;;;;;;;;;;;19.20;99.20;;;19.53;65.09;98578.97;5061488;27;113334;-82
2023/05/23 04:46:35;;;;;;;;;;;19.20;99.30;;;19.53;65.26;98579.78;5075011;27;124801;-83
2023/05/23 04:49:11;;;;;;;;;;;19.20;99.30;;;19.52;65.00;98582.97;5056748;27;124278;-83
2023/05/23 04:51:46;;;;;;;;;;;19.20;99.30;;;19.53;65.21;98587.38;5055045;27;114969;-83
2023/05/23 04:54:13;;;;;;;;;;;19.20;99.30;;;19.51;65.58;98582.16;5060873;27;113812;-83
2023/05/23 04:56:42;;;;;;;;;;;19.20;99.40;;;19.49;65.56;98589.31;5053696;27;123872;-83
2023/05/23 04:59:10;;;;;;;;;;;19.20;99.50;;;19.49;65.35;98589.31;5059883;27;123797;-83
2023/05/23 05:01:39;;;;;;;;;;;19.20;99.40;;;19.48;65.42;98591.31;5064783;27;115701;-82
2023/05/23 05:04:06;;;;;;;;;;;19.20;99.40;;;19.50;65.46;98602.13;5090084;27;114573;-83
2023/05/23 05:06:32;;;;;;;;;;;19.20;99.50;;;19.48;65.15;98596.09;5073165;27;124423;-83
2023/05/23 05:08:58;;;;;;;;;;;19.20;99.50;;;19.48;65.55;98598.91;5059920;27;125968;-82
2023/05/23 05:11:28;;;;;;;;;;;19.20;99.50;;;19.49;65.65;98600.53;5068005;27;114067;-83
2023/05/23 05:13:55;;;;;;;;;;;20.10;99.90;;;19.48;65.33;98596.09;5071506;27;112505;-82
2023/05/23 05:16:21;;;;;;;;;;;19.10;99.60;;;19.50;65.25;98608.53;5057320;27;125027;-82
2023/05/23 05:18:47;;;;;;;;;;;19.20;99.60;;;19.51;65.25;98609.38;5050081;27;123873;-82
2023/05/23 05:21:19;;;;;;;;;;;19.20;99.60;;;19.51;65.28;98612.19;5075399;27;115001;-81
2023/05/23 05:23:46;;;;;;;;;;;19.20;99.60;;;19.49;65.31;98601.34;5072328;27;113616;-82
2023/05/23 05:26:17;;;;;;;;;;;19.20;99.60;;;19.50;65.23;98605.75;5052919;27;123968;-82
2023/05/23 05:28:44;;;;;;;;;;;19.20;99.50;;;19.50;65.05;98602.13;5059568;27;123485;-82
2023/05/23 05:31:18;;;;;;;;;;;19.20;99.50;;;19.53;65.08;98612.59;5085274;27;114759;-83
2023/05/23 05:33:47;;;;;;;;;;;19.20;99.50;;;19.55;65.09;98616.63;5083247;27;113932;-81
2023/05/23 05:36:19;;;;;;;;;;;19.20;99.50;;;19.58;64.95;98612.25;5056805;27;124282;-81
2023/05/23 05:38:46;;;;;;;;;;;19.20;99.50;;;19.60;64.85;98619.13;5069516;27;122793;-83
2023/05/23 05:41:21;;;;;;;;;;;19.20;99.40;;;19.61;64.87;98615.13;5054259;27;113579;-84
2023/05/23 05:43:47;;;;;;;;;;;19.30;99.40;;;19.59;64.79;98611.09;5072341;27;113592;-82
2023/05/23 05:46:16;;;;;;;;;;;19.30;99.40;;;19.58;64.79;98612.25;5081916;27;123802;-82
2023/05/23 05:48:46;;;;;;;;;;;19.20;99.40;;;19.56;64.88;98611.84;5079600;27;123278;-83
2023/05/23 05:51:12;;;;;;;;;;;19.20;99.40;;;19.58;64.77;98609.47;5087514;27;115297;-84
2023/05/23 05:53:41;;;;;;;;;;;19.20;99.40;;;19.61;64.82;98608.69;5072505;27;114329;-84
2023/05/23 05:56:10;;;;;;;;;;;19.30;99.40;;;19.65;64.81;98620.78;5053090;27;124526;-83
2023/05/23 05:58:36;;;;;;;;;;;19.30;99.40;;;19.68;64.67;98620.06;5074049;27;124459;-82
2023/05/23 06:01:06;;;;;;;;;;;19.30;99.40;;;19.68;64.36;98614.47;5082832;27;113780;-82
2023/05/23 06:03:32;;;;;;;;;;;19.30;99.60;;;19.70;64.49;98617.69;5073606;27;112885;-82
2023/05/23 06:05:59;;;;;;;;;;;19.30;99.30;;;19.72;64.58;98626.53;5089699;27;124362;-84
2023/05/23 06:08:25;;;;;;;;;;;19.30;99.30;;;19.73;64.55;98621.75;5064517;27;124048;-83
2023/05/23 06:10:53;;;;;;;;;;;19.40;99.30;;;19.75;64.34;98624.97;5057027;27;113402;-84
2023/05/23 06:13:19;;;;;;;;;;;19.40;99.30;;;19.76;64.51;98620.97;5062049;27;113921;-82
2023/05/23 06:15:45;;;;;;;;;;;19.40;99.20;;;19.75;64.37;98622.97;5071911;27;123915;-81
2023/05/23 06:18:12;;;;;;;;;;;19.40;99.20;;;19.76;64.53;98633.00;5086459;27;122563;-83
2023/05/23 06:20:41;;;;;;;;;;;19.40;99.20;;;19.78;64.18;98624.22;5080826;27;113884;-83
2023/05/23 06:23:07;;;;;;;;;;;19.40;99.20;;;19.79;64.09;98623.81;5068249;27;113057;-82
2023/05/23 06:25:34;;;;;;;;;;;19.40;99.20;;;19.83;64.39;98630.31;5072319;27;123462;-83
2023/05/23 06:28:00;;;;;;;;;;;19.50;99.20;;;19.87;64.19;98624.75;5073166;27;123961;-84
2023/05/23 06:30:29;;;;;;;;;;;19.50;99.10;;;19.87;64.04;98630.34;5052971;27;115954;-81
2023/05/23 06:32:55;;;;;;;;;;;19.50;99.00;;;19.87;63.62;98627.53;5089308;27;113934;-83
2023/05/23 06:35:22;;;;;;;;;;;19.50;99.00;;;19.88;63.87;98636.75;5090859;27;124238;-84
2023/05/23 06:37:48;;;;;;;;;;;19.50;99.00;;;19.89;63.90;98636.38;5076156;27;123293;-85
2023/05/23 06:40:17;;;;;;;;;;;19.50;98.90;;;19.90;63.59;98635.19;5062682;27;115388;-83
2023/05/23 06:42:44;;;;;;;;;;;19.50;98.90;;;19.87;63.84;98644.38;5071483;27;114239;-82
2023/05/23 06:45:10;;;;;;;;;;;19.50;98.90;;;19.85;63.52;98653.19;5084863;27;124422;-83
2023/05/23 06:47:36;;;;;;;;;;;19.50;98.80;;;19.86;63.56;98653.97;5055380;27;123059;-85
2023/05/23 06:50:10;;;;;;;;;;;19.50;98.80;;;19.88;63.50;98657.22;5077077;27;114488;-83
2023/05/23 06:52:36;;;;;;;;;;;19.50;98.80;;;19.88;63.26;98664.78;5079012;27;113748;-84
2023/05/23 06:55:06;;;;;;;;;;;19.50;98.70;;;19.85;63.32;98669.16;5077645;27;123488;-84
2023/05/23 06:57:32;;;;;;;;;;;19.50;98.70;;;19.82;63.58;98667.91;5085275;27;123962;-84
2023/05/23 06:59:58;;;;;;;;;;;19.50;98.70;;;19.79;63.30;98671.50;5080921;27;116300;-84
2023/05/23 07:02:25;;;;;;;;;;;19.50;98.60;;;19.76;63.58;98680.66;5059590;27;113674;-84
2023/05/23 07:04:53;;;;;;;;;;;19.50;98.70;;;19.73;63.45;98675.81;5079326;27;123404;-86
2023/05/23 07:07:19;;;;;;;;;;;19.40;98.60;;;19.72;63.47;98685.41;5079596;27;124491;-83
2023/05/23 07:09:46;;;;;;;;;;;19.40;98.60;;;19.74;63.21;98685.03;5083171;27;114560;-83
2023/05/23 07:12:12;;;;;;;;;;;19.40;98.50;;;19.74;63.36;98691.44;5066745;27;113734;-83
2023/05/23 07:14:41;;;;;;;;;;;19.40;98.50;;;19.72;63.20;98696.63;5037626;27;123703;-82
2023/05/23 07:17:09;;;;;;;;;;;19.40;98.50;;;19.68;62.80;98695.75;5056489;27;123580;-84
2023/05/23 07:19:36;;;;;;;;;;;19.40;98.40;;;19.63;62.99;98698.84;5076253;27;113757;-83
2023/05/23 07:22:06;;;;;;;;;;;19.30;98.30;;;19.61;62.58;98704.84;5086338;27;113531;-83
2023/05/23 07:24:35;;;;;;;;;;;19.30;98.20;;;19.57;62.40;98698.34;5069371;27;123482;-83
2023/05/23 07:27:05;;;;;;;;;;;19.30;98.00;;;19.54;62.41;98699.09;5082352;27;124106;-83
2023/05/23 07:29:31;;;;;;;;;;;19.20;97.90;;;19.52;62.39;98695.06;5076681;27;116076;-84
2023/05/23 07:31:58;;;;;;;;;;;19.20;97.80;;;19.49;62.16;98702.22;5064173;27;113575;-83
2023/05/23 07:34:25;;;;;;;;;;;19.10;97.60;;;19.49;61.87;98698.59;5063236;27;123429;-82
2023/05/23 07:36:55;;;;;;;;;;;19.20;97.60;;;19.48;61.61;98699.78;5073340;27;123768;-83
2023/05/23 07:39:23;;;;;;;;;;;19.20;97.40;;;19.46;61.56;98705.78;5060228;27;113951;-84
2023/05/23 07:41:54;;;;;;;;;;;19.20;97.40;;;19.48;61.39;98705.38;5089220;27;113788;-83
2023/05/23 07:44:21;;;;;;;;;;;19.20;97.40;;;19.46;61.38;98707.75;5059139;27;123060;-83
2023/05/23 07:46:47;;;;;;;;;;;19.20;97.40;;;19.45;61.92;98708.94;5070108;27;124570;-85
2023/05/23 07:49:17;;;;;;;;;;;19.20;97.50;;;19.43;61.76;98715.72;5062143;27;114659;-85
2023/05/23 07:51:43;;;;;;;;;;;19.20;97.50;;;19.41;61.71;98706.88;5070208;27;113830;-83
2023/05/23 07:54:09;;;;;;;;;;;19.10;97.40;;;19.42;61.97;98716.09;5083777;27;124426;-84
2023/05/23 07:56:37;;;;;;;;;;;19.10;97.40;;;19.40;61.41;98716.47;5088066;27;123869;-84
2023/05/23 07:59:05;;;;;;;;;;;19.10;97.30;;;19.39;61.29;98712.03;5081064;27;114099;-83
2023/05/23 08:01:31;;;;;;;;;;;19.10;97.10;;;19.37;60.91;98720.03;5071124;27;113736;-83
2023/05/23 08:03:57;;;;;;;;;;;19.10;96.90;;;19.35;60.39;98714.00;5045634;27;125391;-85
2023/05/23 08:06:24;;;;;;;;;;;19.00;96.70;;;19.34;60.23;98717.97;5064038;27;123911;-87
2023/05/23 08:08:53;;;;;;;;;;;19.00;96.60;;;19.33;59.69;98727.56;5082411;27;114389;-85
2023/05/23 08:11:19;;;;;;;;;;;19.00;96.30;;;19.28;59.56;98727.84;5092563;27;113925;-84
2023/05/23 08:13:45;;;;;;;;;;;19.50;96.40;;;19.26;59.15;98726.59;5088543;27;124791;-82
2023/05/23 08:16:12;;;;;;;;;;;18.90;96.10;;;19.24;59.17;98724.19;5077343;27;123896;-84
2023/05/23 08:18:41;;;;;;;;;;;18.90;96.00;;;19.23;59.35;98730.97;5083348;27;115559;-84
2023/05/23 08:21:07;;;;;;;;;;;18.90;96.00;;;19.21;59.32;98744.56;5050424;27;114190;-85
2023/05/23 08:23:33;;;;;;;;;;;18.90;95.90;;;19.16;59.29;98733.66;5036831;27;124550;-84
2023/05/23 08:26:00;;;;;;;;;;;18.80;95.80;;;19.12;59.24;98743.97;5058895;27;123802;-85
2023/05/23 08:28:34;;;;;;;;;;;18.80;95.80;;;19.10;59.08;98747.16;5054947;27;113636;-82
2023/05/23 08:31:00;;;;;;;;;;;18.80;95.70;;;19.06;58.79;98765.06;5077453;27;113232;-86
2023/05/23 08:33:32;;;;;;;;;;;18.80;95.60;;;19.02;58.70;98756.59;5056919;27;124271;-82
2023/05/23 08:35:58;;;;;;;;;;;18.70;95.40;;;18.98;58.35;98750.91;5065052;27;123027;-82
2023/05/23 08:38:25;;;;;;;;;;;18.70;95.40;;;18.95;58.76;98757.25;5041169;27;113587;-83
2023/05/23 08:40:57;;;;;;;;;;;18.70;95.40;;;18.95;58.64;98756.44;5068111;27;113711;-83
2023/05/23 08:43:23;;;;;;;;;;;18.60;95.30;;;18.96;58.53;98764.47;5090840;27;124108;-82
2023/05/23 08:45:56;;;;;;;;;;;18.70;95.30;;;19.00;58.60;98746.94;5078448;27;124019;-81
2023/05/23 08:48:23;;;;;;;;;;;18.70;95.20;;;18.96;58.50;98760.84;5056001;27;114658;-82
2023/05/23 08:50:59;;;;;;;;;;;18.70;95.50;;;18.94;58.39;98761.25;5042304;27;113156;-82
2023/05/23 08:53:31;;;;;;;;;;;18.70;95.10;;;18.93;58.41;98770.00;5059002;27;123950;-81
2023/05/23 08:56:01;;;;;;;;;;;18.60;95.10;;;18.90;58.36;98760.34;5057512;27;124098;-81
2023/05/23 08:58:30;;;;;;;;;;;18.60;95.00;;;18.89;58.48;98764.34;5060435;27;113800;-82
2023/05/23 09:00:58;;;;;;;;;;;18.60;95.00;;;18.93;58.55;98770.00;5055246;27;113816;-81
2023/05/23 09:03:29;;;;;;;;;;;18.60;95.00;;;18.93;58.23;98781.19;5056967;27;124378;-81
2023/05/23 09:05:59;;;;;;;;;;;18.60;95.00;;;18.95;58.10;98785.25;5063335;27;124526;-85
2023/05/23 09:08:34;;;;;;;;;;;18.60;94.90;;;18.97;58.11;98782.91;5068596;27;115601;-84
2023/05/23 09:11:05;;;;;;;;;;;18.60;95.00;;;18.96;58.01;98775.66;5066449;27;114781;-82
2023/05/23 09:13:34;;;;;;;;;;;18.60;95.00;;;18.98;58.12;98781.72;5055632;27;124432;-84
2023/05/23 09:16:11;;;;;;;;;;;18.60;95.00;;;18.98;58.14;98781.72;5049331;27;123502;-83
2023/05/23 09:18:41;;;;;;;;;;;18.60;95.00;;;18.98;58.11;98787.31;5051541;27;114446;-83
2023/05/23 09:21:09;;;;;;;;;;;18.60;95.10;;;19.00;58.20;98798.16;5051051;27;113264;-83
2023/05/23 09:23:38;;;;;;;;;;;18.60;95.00;;;18.98;57.99;98792.91;5049426;27;124263;-84
2023/05/23 09:26:10;;;;;;;;;;;18.60;94.90;;;18.95;57.94;98788.03;5057057;27;123100;-83
2023/05/23 09:28:44;;;;;;;;;;;18.60;94.80;;;18.96;57.87;98789.66;5059965;27;113682;-82
2023/05/23 09:31:13;;;;;;;;;;;18.60;94.80;;;18.98;57.79;98795.72;5071684;27;113103;-82
2023/05/23 09:33:48;;;;;;;;;;;18.60;94.80;;;19.00;57.66;98786.16;5054539;27;125248;-84
2023/05/23 09:36:18;;;;;;;;;;;18.60;94.70;;;19.00;57.30;98791.75;5063183;27;124751;-84
2023/05/23 09:38:45;;;;;;;;;;;18.60;94.50;;;18.98;57.36;98792.91;5058335;27;114430;-83
2023/05/23 09:41:19;;;;;;;;;;;18.60;94.50;;;18.95;57.01;98793.66;5061262;27;112773;-83
2023/05/23 09:43:53;;;;;;;;;;;18.60;94.50;;;18.95;57.11;98802.06;5074261;27;123431;-83
2023/05/23 09:46:23;;;;;;;;;;;18.60;94.40;;;18.97;57.41;98798.91;5057345;27;123611;-82
2023/05/23 09:48:56;;;;;;;;;;;18.60;94.50;;;19.01;56.94;98794.16;5050922;27;113605;-83
2023/05/23 09:51:23;;;;;;;;;;;18.60;94.40;;;19.05;56.98;98799.81;5059424;27;113368;-82
2023/05/23 09:53:58;;;;;;;;;;;18.60;94.40;;;19.09;56.95;98806.31;5063521;27;124648;-83
2023/05/23 09:56:25;;;;;;;;;;;18.70;94.40;;;19.12;56.82;98799.97;5091741;27;124126;-84
2023/05/23 09:58:54;;;;;;;;;;;18.70;94.30;;;19.14;56.33;98792.81;5061094;27;115616;-83
2023/05/23 10:01:22;;;;;;;;;;;18.80;94.20;;;19.17;56.18;98791.28;5074186;27;114381;-82
2023/05/23 10:03:50;;;;;;;;;;;18.70;94.00;;;19.20;55.86;98796.94;5074051;27;124462;-84
2023/05/23 10:06:47;;;;;;;;;;;18.80;93.90;;;19.25;55.90;98801.44;5079618;27;123755;-83
2023/05/23 10:09:22;;;;;;;;;;;18.80;93.90;;;19.27;55.45;98790.69;5058045;27;114971;-82
2023/05/23 10:12:30;;;;;;;;;;;18.90;93.60;;;19.28;55.34;98792.28;5067253;27;114024;-82
2023/05/23 10:14:59;;;;;;;;;;;18.90;93.50;;;19.36;55.20;98787.63;5074137;27;123420;-83
2023/05/23 10:17:43;;;;;;;;;;;18.90;93.50;;;19.43;54.87;98788.59;5060040;27;123743;-83
2023/05/23 10:20:11;;;;;;;;;;;19.00;93.40;;;19.51;54.99;98789.53;5052991;27;113411;-83
2023/05/23 10:22:42;;;;;;;;;;;19.10;93.30;;;19.61;54.89;98774.91;5073862;27;113979;-83
2023/05/23 10:25:09;;;;;;;;;;;19.10;93.30;;;19.75;54.40;98779.16;5057487;27;124472;-82
2023/05/23 10:27:44;;;;;;;;;;;19.20;93.20;;;19.84;54.19;98790.94;5052329;27;124016;-82
2023/05/23 10:30:11;;;;;;;;;;;19.30;93.10;;;19.93;53.62;98791.47;5079470;27;114564;-82
2023/05/23 10:32:38;;;;;;;;;;;19.40;92.90;;;20.01;53.24;98793.19;5078965;27;113667;-84
2023/05/23 10:35:30;;;;;;;;;;;19.50;92.70;;;20.05;53.07;98782.06;5061362;27;124044;-82
2023/05/23 10:38:30;;;;;;;;;;;19.50;92.60;;;20.12;52.66;98784.16;5080647;27;124326;-84
2023/05/23 10:41:21;;;;;;;;;;;19.60;92.20;;;20.13;52.18;98792.22;5056153;27;114392;-83
2023/05/23 10:44:30;;;;;;;;;;;19.70;91.80;;;20.19;51.90;98790.69;5077512;27;114059;-83
2023/05/23 10:47:00;;;;;;;;;;;19.70;91.60;;;20.24;51.88;98793.19;5061314;27;123887;-83
2023/05/23 10:49:45;;;;;;;;;;;19.80;92.00;;;20.23;52.08;98791.56;5072247;27;124509;-82
2023/05/23 10:52:13;;;;;;;;;;;19.80;91.80;;;20.21;51.92;98785.53;5044653;27;115101;-82
2023/05/23 10:54:55;;;;;;;;;;;19.80;91.70;;;20.23;52.23;98790.75;5050939;27;114205;-82
2023/05/23 10:57:32;;;;;;;;;;;19.90;91.70;;;20.25;51.62;98791.97;5055253;27;124396;-84
2023/05/23 10:59:58;;;;;;;;;;;19.90;91.50;;;20.25;51.63;98789.19;5051136;27;126491;-88
2023/05/23 11:02:32;;;;;;;;;;;19.20;91.30;;;20.30;51.79;98791.66;5056195;27;113909;-82
2023/05/23 11:05:30;;;;;;;;;;;20.20;91.40;;;20.32;51.41;98796.09;5072591;27;115396;-83
2023/05/23 11:08:10;;;;;;;;;;;19.90;91.10;;;20.37;51.38;98795.78;5013943;27;123116;-83
2023/05/23 11:11:01;;;;;;;;;;;20.00;91.20;;;20.41;50.63;98799.44;5070939;27;124396;-83
2023/05/23 11:13:56;;;;;;;;;;;20.00;90.90;;;20.37;50.46;98801.41;5058070;27;113553;-84
2023/05/23 11:16:47;;;;;;;;;;;20.00;90.60;;;20.30;50.43;98802.88;5045025;27;113332;-83
2023/05/23 11:19:20;;;;;;;;;;;20.00;90.50;;;20.34;50.00;98816.16;4983104;28;124244;-84
2023/05/23 11:21:58;;;;;;;;;;;20.00;90.30;;;20.37;50.16;98802.19;4994873;28;123914;-84
2023/05/23 11:24:57;;;;;;;;;;;20.00;90.20;;;20.38;49.57;98806.63;4976118;28;114933;-83